sensor_id;sensor_type;location;lat;lon;timestamp;P1;durP1;ratioP1;P2;durP2;ratioP2
65597;SDS011;52267;51.984;20.956;2023-07-13T00:02:07;7.00;;;5.80;;
65597;SDS011;52267;51.984;20.956;2023-07-13T00:04:34;7.90;;;5.50;;
65597;SDS011;52267;51.984;20.956;2023-07-13T00:07:01;9.40;;;6.80;;
65597;SDS011;52267;51.984;20.956;2023-07-13T00:09:29;8.70;;;5.80;;
65597;SDS011;52267;51.984;20.956;2023-07-13T00:11:57;8.10;;;6.30;;
65597;SDS011;52267;51.984;20.956;2023-07-13T00:14:25;12.80;;;6.50;;
65597;SDS011;52267;51.984;20.956;2023-07-13T00:16:54;7.90;;;6.00;;
65597;SDS011;52267;51.984;20.956;2023-07-13T00:19:22;8.80;;;6.70;;
65597;SDS011;52267;51.984;20.956;2023-07-13T00:21:49;8.70;;;5.90;;
65597;SDS011;52267;51.984;20.956;2023-07-13T00:24:17;8.80;;;6.30;;
65597;SDS011;52267;51.984;20.956;2023-07-13T00:26:49;8.80;;;6.00;;
65597;SDS011;52267;51.984;20.956;2023-07-13T00:29:17;9.60;;;6.60;;
65597;SDS011;52267;51.984;20.956;2023-07-13T00:31:44;10.60;;;6.00;;
65597;SDS011;52267;51.984;20.956;2023-07-13T00:34:11;9.40;;;7.40;;
65597;SDS011;52267;51.984;20.956;2023-07-13T00:36:38;9.00;;;5.90;;
65597;SDS011;52267;51.984;20.956;2023-07-13T00:39:05;8.90;;;6.00;;
65597;SDS011;52267;51.984;20.956;2023-07-13T00:41:32;8.70;;;6.30;;
65597;SDS011;52267;51.984;20.956;2023-07-13T00:43:59;9.50;;;6.00;;
65597;SDS011;52267;51.984;20.956;2023-07-13T00:46:30;9.20;;;6.40;;
65597;SDS011;52267;51.984;20.956;2023-07-13T00:49:02;9.50;;;6.40;;
65597;SDS011;52267;51.984;20.956;2023-07-13T00:51:36;8.40;;;6.10;;
65597;SDS011;52267;51.984;20.956;2023-07-13T00:54:27;8.00;;;5.20;;
65597;SDS011;52267;51.984;20.956;2023-07-13T00:56:59;7.50;;;6.00;;
65597;SDS011;52267;51.984;20.956;2023-07-13T00:59:30;8.90;;;6.20;;
65597;SDS011;52267;51.984;20.956;2023-07-13T01:01:58;11.40;;;7.50;;
65597;SDS011;52267;51.984;20.956;2023-07-13T01:04:25;7.60;;;6.40;;
65597;SDS011;52267;51.984;20.956;2023-07-13T01:06:53;8.90;;;6.30;;
65597;SDS011;52267;51.984;20.956;2023-07-13T01:09:20;9.60;;;6.30;;
65597;SDS011;52267;51.984;20.956;2023-07-13T01:11:48;7.80;;;6.10;;
65597;SDS011;52267;51.984;20.956;2023-07-13T01:14:15;7.80;;;6.00;;
65597;SDS011;52267;51.984;20.956;2023-07-13T01:16:45;8.40;;;6.30;;
65597;SDS011;52267;51.984;20.956;2023-07-13T01:19:33;8.90;;;6.20;;
65597;SDS011;52267;51.984;20.956;2023-07-13T01:22:05;8.90;;;6.50;;
65597;SDS011;52267;51.984;20.956;2023-07-13T01:24:35;8.70;;;6.40;;
65597;SDS011;52267;51.984;20.956;2023-07-13T01:27:04;6.70;;;5.80;;
65597;SDS011;52267;51.984;20.956;2023-07-13T01:29:36;8.50;;;6.50;;
65597;SDS011;52267;51.984;20.956;2023-07-13T01:32:12;9.60;;;5.90;;
65597;SDS011;52267;51.984;20.956;2023-07-13T01:34:41;8.30;;;5.60;;
65597;SDS011;52267;51.984;20.956;2023-07-13T01:37:10;9.10;;;6.00;;
65597;SDS011;52267;51.984;20.956;2023-07-13T01:39:38;9.10;;;5.70;;
65597;SDS011;52267;51.984;20.956;2023-07-13T01:42:06;9.40;;;6.20;;
65597;SDS011;52267;51.984;20.956;2023-07-13T01:44:34;7.50;;;5.30;;
65597;SDS011;52267;51.984;20.956;2023-07-13T01:47:01;8.40;;;6.00;;
65597;SDS011;52267;51.984;20.956;2023-07-13T01:49:28;9.00;;;6.40;;
65597;SDS011;52267;51.984;20.956;2023-07-13T01:51:55;8.80;;;6.20;;
65597;SDS011;52267;51.984;20.956;2023-07-13T01:54:23;9.10;;;6.10;;
65597;SDS011;52267;51.984;20.956;2023-07-13T01:56:50;8.50;;;6.40;;
65597;SDS011;52267;51.984;20.956;2023-07-13T01:59:17;9.30;;;5.80;;
65597;SDS011;52267;51.984;20.956;2023-07-13T02:01:44;8.20;;;5.80;;
65597;SDS011;52267;51.984;20.956;2023-07-13T02:04:11;12.70;;;6.70;;
65597;SDS011;52267;51.984;20.956;2023-07-13T02:06:38;11.50;;;6.10;;
65597;SDS011;52267;51.984;20.956;2023-07-13T02:09:05;9.10;;;5.80;;
65597;SDS011;52267;51.984;20.956;2023-07-13T02:11:33;8.00;;;6.20;;
65597;SDS011;52267;51.984;20.956;2023-07-13T02:14:01;9.60;;;6.30;;
65597;SDS011;52267;51.984;20.956;2023-07-13T02:16:30;8.30;;;6.00;;
65597;SDS011;52267;51.984;20.956;2023-07-13T02:18:57;8.10;;;6.40;;
65597;SDS011;52267;51.984;20.956;2023-07-13T02:21:24;9.60;;;6.30;;
65597;SDS011;52267;51.984;20.956;2023-07-13T02:23:52;7.40;;;6.20;;
65597;SDS011;52267;51.984;20.956;2023-07-13T02:26:19;8.30;;;6.20;;
65597;SDS011;52267;51.984;20.956;2023-07-13T02:28:46;8.40;;;5.60;;
65597;SDS011;52267;51.984;20.956;2023-07-13T02:31:15;8.20;;;6.10;;
65597;SDS011;52267;51.984;20.956;2023-07-13T02:33:42;8.50;;;6.40;;
65597;SDS011;52267;51.984;20.956;2023-07-13T02:36:10;8.40;;;6.30;;
65597;SDS011;52267;51.984;20.956;2023-07-13T02:38:37;9.60;;;6.60;;
65597;SDS011;52267;51.984;20.956;2023-07-13T02:41:07;11.20;;;7.10;;
65597;SDS011;52267;51.984;20.956;2023-07-13T02:43:36;8.50;;;6.00;;
65597;SDS011;52267;51.984;20.956;2023-07-13T02:46:03;9.70;;;6.70;;
65597;SDS011;52267;51.984;20.956;2023-07-13T02:48:34;8.80;;;6.40;;
65597;SDS011;52267;51.984;20.956;2023-07-13T02:51:02;8.20;;;6.40;;
65597;SDS011;52267;51.984;20.956;2023-07-13T02:53:29;8.90;;;6.30;;
65597;SDS011;52267;51.984;20.956;2023-07-13T02:55:56;9.40;;;6.60;;
65597;SDS011;52267;51.984;20.956;2023-07-13T02:58:23;8.70;;;6.60;;
65597;SDS011;52267;51.984;20.956;2023-07-13T03:00:51;9.50;;;6.60;;
65597;SDS011;52267;51.984;20.956;2023-07-13T03:03:18;8.30;;;6.60;;
65597;SDS011;52267;51.984;20.956;2023-07-13T03:05:45;7.40;;;6.30;;
65597;SDS011;52267;51.984;20.956;2023-07-13T03:08:16;9.20;;;6.60;;
65597;SDS011;52267;51.984;20.956;2023-07-13T03:10:44;8.50;;;6.40;;
65597;SDS011;52267;51.984;20.956;2023-07-13T03:13:12;9.20;;;6.60;;
65597;SDS011;52267;51.984;20.956;2023-07-13T03:15:38;9.90;;;6.10;;
65597;SDS011;52267;51.984;20.956;2023-07-13T03:18:06;10.70;;;6.70;;
65597;SDS011;52267;51.984;20.956;2023-07-13T03:20:34;10.20;;;7.10;;
65597;SDS011;52267;51.984;20.956;2023-07-13T03:23:01;7.60;;;5.80;;
65597;SDS011;52267;51.984;20.956;2023-07-13T03:25:29;10.20;;;6.30;;
65597;SDS011;52267;51.984;20.956;2023-07-13T03:27:56;9.90;;;7.30;;
65597;SDS011;52267;51.984;20.956;2023-07-13T03:30:23;8.70;;;6.10;;
65597;SDS011;52267;51.984;20.956;2023-07-13T03:32:51;9.50;;;6.70;;
65597;SDS011;52267;51.984;20.956;2023-07-13T03:35:18;9.50;;;6.60;;
65597;SDS011;52267;51.984;20.956;2023-07-13T03:37:45;9.00;;;6.70;;
65597;SDS011;52267;51.984;20.956;2023-07-13T03:40:12;10.40;;;7.10;;
65597;SDS011;52267;51.984;20.956;2023-07-13T03:42:40;8.40;;;7.10;;
65597;SDS011;52267;51.984;20.956;2023-07-13T03:45:08;11.10;;;8.10;;
65597;SDS011;52267;51.984;20.956;2023-07-13T03:47:35;11.60;;;7.90;;
65597;SDS011;52267;51.984;20.956;2023-07-13T03:50:02;9.80;;;7.40;;
65597;SDS011;52267;51.984;20.956;2023-07-13T03:52:30;10.30;;;8.40;;
65597;SDS011;52267;51.984;20.956;2023-07-13T03:54:57;11.50;;;8.20;;
65597;SDS011;52267;51.984;20.956;2023-07-13T03:57:24;12.10;;;8.20;;
65597;SDS011;52267;51.984;20.956;2023-07-13T03:59:51;14.30;;;8.70;;
65597;SDS011;52267;51.984;20.956;2023-07-13T04:02:18;13.40;;;8.00;;
65597;SDS011;52267;51.984;20.956;2023-07-13T04:04:46;10.20;;;7.10;;
65597;SDS011;52267;51.984;20.956;2023-07-13T04:07:13;12.40;;;9.20;;
65597;SDS011;52267;51.984;20.956;2023-07-13T04:09:40;10.20;;;7.90;;
65597;SDS011;52267;51.984;20.956;2023-07-13T04:12:07;9.40;;;8.00;;
65597;SDS011;52267;51.984;20.956;2023-07-13T04:14:34;11.80;;;9.50;;
65597;SDS011;52267;51.984;20.956;2023-07-13T04:17:01;12.50;;;9.40;;
65597;SDS011;52267;51.984;20.956;2023-07-13T04:19:29;11.50;;;9.00;;
65597;SDS011;52267;51.984;20.956;2023-07-13T04:21:56;12.50;;;9.50;;
65597;SDS011;52267;51.984;20.956;2023-07-13T04:24:22;14.70;;;10.20;;
65597;SDS011;52267;51.984;20.956;2023-07-13T04:26:49;12.60;;;9.50;;
65597;SDS011;52267;51.984;20.956;2023-07-13T04:29:16;14.10;;;9.00;;
65597;SDS011;52267;51.984;20.956;2023-07-13T04:31:43;12.30;;;8.60;;
65597;SDS011;52267;51.984;20.956;2023-07-13T04:34:10;11.50;;;9.00;;
65597;SDS011;52267;51.984;20.956;2023-07-13T04:36:38;12.50;;;9.20;;
65597;SDS011;52267;51.984;20.956;2023-07-13T04:39:05;11.70;;;8.60;;
65597;SDS011;52267;51.984;20.956;2023-07-13T04:41:32;11.60;;;9.20;;
65597;SDS011;52267;51.984;20.956;2023-07-13T04:43:58;12.70;;;9.60;;
65597;SDS011;52267;51.984;20.956;2023-07-13T04:46:25;16.90;;;9.50;;
65597;SDS011;52267;51.984;20.956;2023-07-13T04:48:53;11.40;;;9.20;;
65597;SDS011;52267;51.984;20.956;2023-07-13T04:51:20;13.50;;;10.20;;
65597;SDS011;52267;51.984;20.956;2023-07-13T04:53:47;10.40;;;8.20;;
65597;SDS011;52267;51.984;20.956;2023-07-13T04:56:14;12.20;;;8.90;;
65597;SDS011;52267;51.984;20.956;2023-07-13T04:58:41;11.90;;;9.00;;
65597;SDS011;52267;51.984;20.956;2023-07-13T05:01:09;13.40;;;9.30;;
65597;SDS011;52267;51.984;20.956;2023-07-13T05:03:36;12.50;;;8.80;;
65597;SDS011;52267;51.984;20.956;2023-07-13T05:06:06;12.00;;;8.60;;
65597;SDS011;52267;51.984;20.956;2023-07-13T05:08:36;12.30;;;9.00;;
65597;SDS011;52267;51.984;20.956;2023-07-13T05:11:04;11.10;;;8.70;;
65597;SDS011;52267;51.984;20.956;2023-07-13T05:13:33;10.70;;;8.60;;
65597;SDS011;52267;51.984;20.956;2023-07-13T05:16:02;11.70;;;9.10;;
65597;SDS011;52267;51.984;20.956;2023-07-13T05:18:30;11.60;;;8.60;;
65597;SDS011;52267;51.984;20.956;2023-07-13T05:21:03;10.70;;;8.50;;
65597;SDS011;52267;51.984;20.956;2023-07-13T05:23:35;12.90;;;9.60;;
65597;SDS011;52267;51.984;20.956;2023-07-13T05:26:03;12.20;;;9.90;;
65597;SDS011;52267;51.984;20.956;2023-07-13T05:28:31;11.20;;;9.40;;
65597;SDS011;52267;51.984;20.956;2023-07-13T05:30:59;10.90;;;8.70;;
65597;SDS011;52267;51.984;20.956;2023-07-13T05:33:26;13.80;;;9.10;;
65597;SDS011;52267;51.984;20.956;2023-07-13T05:35:54;12.20;;;9.40;;
65597;SDS011;52267;51.984;20.956;2023-07-13T05:38:21;13.40;;;9.30;;
65597;SDS011;52267;51.984;20.956;2023-07-13T05:40:49;11.80;;;9.70;;
65597;SDS011;52267;51.984;20.956;2023-07-13T05:43:17;10.80;;;9.30;;
65597;SDS011;52267;51.984;20.956;2023-07-13T05:45:44;13.70;;;9.30;;
65597;SDS011;52267;51.984;20.956;2023-07-13T05:48:11;14.20;;;9.90;;
65597;SDS011;52267;51.984;20.956;2023-07-13T05:50:38;11.60;;;9.20;;
65597;SDS011;52267;51.984;20.956;2023-07-13T05:53:05;12.80;;;8.50;;
65597;SDS011;52267;51.984;20.956;2023-07-13T05:55:33;15.10;;;9.80;;
65597;SDS011;52267;51.984;20.956;2023-07-13T05:58:01;15.00;;;10.00;;
65597;SDS011;52267;51.984;20.956;2023-07-13T06:00:28;11.00;;;9.10;;
65597;SDS011;52267;51.984;20.956;2023-07-13T06:02:56;11.70;;;9.00;;
65597;SDS011;52267;51.984;20.956;2023-07-13T06:05:25;12.50;;;10.00;;
65597;SDS011;52267;51.984;20.956;2023-07-13T06:07:52;15.40;;;10.20;;
65597;SDS011;52267;51.984;20.956;2023-07-13T06:10:19;15.00;;;10.40;;
65597;SDS011;52267;51.984;20.956;2023-07-13T06:12:46;16.20;;;10.90;;
65597;SDS011;52267;51.984;20.956;2023-07-13T06:15:13;15.30;;;10.30;;
65597;SDS011;52267;51.984;20.956;2023-07-13T06:17:40;15.90;;;10.20;;
65597;SDS011;52267;51.984;20.956;2023-07-13T06:20:07;11.90;;;10.00;;
65597;SDS011;52267;51.984;20.956;2023-07-13T06:22:35;15.20;;;10.10;;
65597;SDS011;52267;51.984;20.956;2023-07-13T06:25:02;12.40;;;10.00;;
65597;SDS011;52267;51.984;20.956;2023-07-13T06:27:29;13.30;;;10.10;;
65597;SDS011;52267;51.984;20.956;2023-07-13T06:29:56;14.40;;;11.40;;
65597;SDS011;52267;51.984;20.956;2023-07-13T06:32:24;13.20;;;11.20;;
65597;SDS011;52267;51.984;20.956;2023-07-13T06:34:51;15.00;;;11.90;;
65597;SDS011;52267;51.984;20.956;2023-07-13T06:37:20;13.30;;;10.50;;
65597;SDS011;52267;51.984;20.956;2023-07-13T06:39:47;14.40;;;11.80;;
65597;SDS011;52267;51.984;20.956;2023-07-13T06:42:16;12.80;;;11.10;;
65597;SDS011;52267;51.984;20.956;2023-07-13T06:44:43;13.10;;;10.90;;
65597;SDS011;52267;51.984;20.956;2023-07-13T06:47:10;14.80;;;10.90;;
65597;SDS011;52267;51.984;20.956;2023-07-13T06:49:43;16.30;;;12.00;;
65597;SDS011;52267;51.984;20.956;2023-07-13T06:52:10;13.10;;;10.50;;
65597;SDS011;52267;51.984;20.956;2023-07-13T06:54:37;13.00;;;10.60;;
65597;SDS011;52267;51.984;20.956;2023-07-13T06:57:05;12.70;;;9.90;;
65597;SDS011;52267;51.984;20.956;2023-07-13T06:59:32;11.90;;;10.20;;
65597;SDS011;52267;51.984;20.956;2023-07-13T07:02:02;12.10;;;9.90;;
65597;SDS011;52267;51.984;20.956;2023-07-13T07:04:29;11.60;;;9.60;;
65597;SDS011;52267;51.984;20.956;2023-07-13T07:06:56;11.20;;;9.50;;
65597;SDS011;52267;51.984;20.956;2023-07-13T07:09:23;11.90;;;10.00;;
65597;SDS011;52267;51.984;20.956;2023-07-13T07:11:50;14.50;;;10.00;;
65597;SDS011;52267;51.984;20.956;2023-07-13T07:14:17;12.00;;;9.50;;
65597;SDS011;52267;51.984;20.956;2023-07-13T07:16:45;11.30;;;8.90;;
65597;SDS011;52267;51.984;20.956;2023-07-13T07:19:12;12.70;;;9.40;;
65597;SDS011;52267;51.984;20.956;2023-07-13T07:21:39;9.90;;;8.90;;
65597;SDS011;52267;51.984;20.956;2023-07-13T07:24:06;10.60;;;8.60;;
65597;SDS011;52267;51.984;20.956;2023-07-13T07:26:34;11.30;;;8.50;;
65597;SDS011;52267;51.984;20.956;2023-07-13T07:29:01;9.90;;;8.80;;
65597;SDS011;52267;51.984;20.956;2023-07-13T07:31:28;11.60;;;8.10;;
65597;SDS011;52267;51.984;20.956;2023-07-13T07:33:55;11.30;;;8.80;;
65597;SDS011;52267;51.984;20.956;2023-07-13T07:36:22;8.70;;;6.30;;
65597;SDS011;52267;51.984;20.956;2023-07-13T07:38:49;9.40;;;7.70;;
65597;SDS011;52267;51.984;20.956;2023-07-13T07:41:16;10.20;;;8.00;;
65597;SDS011;52267;51.984;20.956;2023-07-13T07:43:43;12.80;;;8.50;;
65597;SDS011;52267;51.984;20.956;2023-07-13T07:46:10;9.70;;;8.30;;
65597;SDS011;52267;51.984;20.956;2023-07-13T07:48:37;9.30;;;7.80;;
65597;SDS011;52267;51.984;20.956;2023-07-13T07:51:04;13.20;;;8.30;;
65597;SDS011;52267;51.984;20.956;2023-07-13T07:53:31;8.80;;;7.70;;
65597;SDS011;52267;51.984;20.956;2023-07-13T07:55:58;10.20;;;8.00;;
65597;SDS011;52267;51.984;20.956;2023-07-13T07:58:25;11.70;;;8.90;;
65597;SDS011;52267;51.984;20.956;2023-07-13T08:00:52;10.80;;;8.80;;
65597;SDS011;52267;51.984;20.956;2023-07-13T08:03:19;9.40;;;7.70;;
65597;SDS011;52267;51.984;20.956;2023-07-13T08:05:46;9.30;;;8.00;;
65597;SDS011;52267;51.984;20.956;2023-07-13T08:08:13;9.30;;;8.30;;
65597;SDS011;52267;51.984;20.956;2023-07-13T08:10:41;10.40;;;7.40;;
65597;SDS011;52267;51.984;20.956;2023-07-13T08:13:08;10.10;;;7.90;;
65597;SDS011;52267;51.984;20.956;2023-07-13T08:15:36;10.30;;;7.80;;
65597;SDS011;52267;51.984;20.956;2023-07-13T08:18:04;9.60;;;7.60;;
65597;SDS011;52267;51.984;20.956;2023-07-13T08:20:31;11.20;;;8.60;;
65597;SDS011;52267;51.984;20.956;2023-07-13T08:22:58;9.00;;;7.90;;
65597;SDS011;52267;51.984;20.956;2023-07-13T08:25:25;10.40;;;8.20;;
65597;SDS011;52267;51.984;20.956;2023-07-13T08:27:52;9.50;;;7.60;;
65597;SDS011;52267;51.984;20.956;2023-07-13T08:30:19;9.50;;;7.50;;
65597;SDS011;52267;51.984;20.956;2023-07-13T08:32:46;9.50;;;8.20;;
65597;SDS011;52267;51.984;20.956;2023-07-13T08:35:13;7.90;;;6.80;;
65597;SDS011;52267;51.984;20.956;2023-07-13T08:37:41;7.50;;;6.60;;
65597;SDS011;52267;51.984;20.956;2023-07-13T08:40:10;8.50;;;6.90;;
65597;SDS011;52267;51.984;20.956;2023-07-13T08:42:48;10.70;;;8.50;;
65597;SDS011;52267;51.984;20.956;2023-07-13T08:45:22;9.50;;;8.10;;
65597;SDS011;52267;51.984;20.956;2023-07-13T08:50:35;8.40;;;7.00;;
65597;SDS011;52267;51.984;20.956;2023-07-13T08:53:06;10.00;;;7.90;;
65597;SDS011;52267;51.984;20.956;2023-07-13T08:55:36;9.10;;;7.60;;
65597;SDS011;52267;51.984;20.956;2023-07-13T08:58:13;9.40;;;7.40;;
65597;SDS011;52267;51.984;20.956;2023-07-13T09:03:46;9.60;;;8.20;;
65597;SDS011;52267;51.984;20.956;2023-07-13T09:06:17;11.10;;;8.20;;
65597;SDS011;52267;51.984;20.956;2023-07-13T09:09:00;9.60;;;8.10;;
65597;SDS011;52267;51.984;20.956;2023-07-13T09:17:41;11.80;;;7.90;;
65597;SDS011;52267;51.984;20.956;2023-07-13T09:20:24;9.60;;;7.80;;
65597;SDS011;52267;51.984;20.956;2023-07-13T09:23:01;9.50;;;8.40;;
65597;SDS011;52267;51.984;20.956;2023-07-13T09:25:36;10.60;;;8.40;;
65597;SDS011;52267;51.984;20.956;2023-07-13T09:28:26;10.00;;;9.00;;
65597;SDS011;52267;51.984;20.956;2023-07-13T09:31:02;9.30;;;8.20;;
65597;SDS011;52267;51.984;20.956;2023-07-13T09:33:32;8.60;;;7.70;;
65597;SDS011;52267;51.984;20.956;2023-07-13T09:38:46;11.00;;;9.10;;
65597;SDS011;52267;51.984;20.956;2023-07-13T09:41:46;9.00;;;7.70;;
65597;SDS011;52267;51.984;20.956;2023-07-13T09:44:18;8.60;;;7.30;;
65597;SDS011;52267;51.984;20.956;2023-07-13T09:46:58;8.90;;;7.40;;
65597;SDS011;52267;51.984;20.956;2023-07-13T09:49:27;8.80;;;7.70;;
65597;SDS011;52267;51.984;20.956;2023-07-13T09:52:04;9.50;;;7.20;;
65597;SDS011;52267;51.984;20.956;2023-07-13T09:54:35;8.90;;;6.80;;
65597;SDS011;52267;51.984;20.956;2023-07-13T09:57:14;9.60;;;8.50;;
65597;SDS011;52267;51.984;20.956;2023-07-13T09:59:45;7.90;;;7.10;;
65597;SDS011;52267;51.984;20.956;2023-07-13T10:05:02;9.40;;;6.10;;
65597;SDS011;52267;51.984;20.956;2023-07-13T10:07:32;8.50;;;6.40;;
65597;SDS011;52267;51.984;20.956;2023-07-13T10:10:17;8.80;;;7.40;;
65597;SDS011;52267;51.984;20.956;2023-07-13T10:12:50;8.30;;;7.00;;
65597;SDS011;52267;51.984;20.956;2023-07-13T10:15:21;9.10;;;7.60;;
65597;SDS011;52267;51.984;20.956;2023-07-13T10:17:50;9.70;;;7.00;;
65597;SDS011;52267;51.984;20.956;2023-07-13T10:20:18;9.30;;;7.50;;
65597;SDS011;52267;51.984;20.956;2023-07-13T10:23:02;8.10;;;6.80;;
65597;SDS011;52267;51.984;20.956;2023-07-13T10:25:37;8.00;;;7.10;;
65597;SDS011;52267;51.984;20.956;2023-07-13T10:28:27;10.00;;;7.90;;
65597;SDS011;52267;51.984;20.956;2023-07-13T10:30:59;10.10;;;7.70;;
65597;SDS011;52267;51.984;20.956;2023-07-13T10:33:28;13.10;;;8.80;;
65597;SDS011;52267;51.984;20.956;2023-07-13T10:36:05;12.10;;;8.60;;
65597;SDS011;52267;51.984;20.956;2023-07-13T10:38:39;9.30;;;8.00;;
65597;SDS011;52267;51.984;20.956;2023-07-13T10:41:12;8.90;;;6.80;;
65597;SDS011;52267;51.984;20.956;2023-07-13T10:43:44;9.70;;;7.70;;
65597;SDS011;52267;51.984;20.956;2023-07-13T10:46:16;8.40;;;7.20;;
65597;SDS011;52267;51.984;20.956;2023-07-13T10:48:49;8.10;;;7.00;;
65597;SDS011;52267;51.984;20.956;2023-07-13T10:51:20;8.70;;;7.70;;
65597;SDS011;52267;51.984;20.956;2023-07-13T10:57:07;8.80;;;7.70;;
65597;SDS011;52267;51.984;20.956;2023-07-13T10:59:36;13.80;;;9.80;;
65597;SDS011;52267;51.984;20.956;2023-07-13T11:04:42;9.70;;;8.60;;
65597;SDS011;52267;51.984;20.956;2023-07-13T11:07:24;11.40;;;9.40;;
65597;SDS011;52267;51.984;20.956;2023-07-13T11:10:03;9.10;;;7.10;;
65597;SDS011;52267;51.984;20.956;2023-07-13T11:15:14;8.40;;;5.30;;
65597;SDS011;52267;51.984;20.956;2023-07-13T11:17:49;7.90;;;5.00;;
65597;SDS011;52267;51.984;20.956;2023-07-13T11:20:22;9.10;;;5.20;;
65597;SDS011;52267;51.984;20.956;2023-07-13T11:23:16;8.70;;;5.40;;
65597;SDS011;52267;51.984;20.956;2023-07-13T11:25:47;9.10;;;5.40;;
65597;SDS011;52267;51.984;20.956;2023-07-13T11:28:18;8.70;;;5.60;;
65597;SDS011;52267;51.984;20.956;2023-07-13T11:31:13;9.50;;;5.60;;
65597;SDS011;52267;51.984;20.956;2023-07-13T11:36:14;8.10;;;5.40;;
65597;SDS011;52267;51.984;20.956;2023-07-13T11:38:47;10.30;;;5.50;;
65597;SDS011;52267;51.984;20.956;2023-07-13T11:41:31;6.20;;;5.20;;
65597;SDS011;52267;51.984;20.956;2023-07-13T11:44:10;8.20;;;5.70;;
65597;SDS011;52267;51.984;20.956;2023-07-13T11:46:50;8.20;;;5.60;;
65597;SDS011;52267;51.984;20.956;2023-07-13T11:49:20;14.60;;;6.60;;
65597;SDS011;52267;51.984;20.956;2023-07-13T11:51:49;7.50;;;5.40;;
65597;SDS011;52267;51.984;20.956;2023-07-13T11:54:31;7.80;;;5.30;;
65597;SDS011;52267;51.984;20.956;2023-07-13T11:57:25;6.50;;;5.10;;
65597;SDS011;52267;51.984;20.956;2023-07-13T11:59:55;8.20;;;5.60;;
65597;SDS011;52267;51.984;20.956;2023-07-13T12:02:33;9.30;;;5.70;;
65597;SDS011;52267;51.984;20.956;2023-07-13T12:05:04;6.60;;;4.60;;
65597;SDS011;52267;51.984;20.956;2023-07-13T12:07:33;8.80;;;5.90;;
65597;SDS011;52267;51.984;20.956;2023-07-13T12:12:53;7.10;;;4.70;;
65597;SDS011;52267;51.984;20.956;2023-07-13T12:15:47;8.60;;;5.40;;
65597;SDS011;52267;51.984;20.956;2023-07-13T12:18:20;7.40;;;5.20;;
65597;SDS011;52267;51.984;20.956;2023-07-13T12:20:51;8.70;;;5.10;;
65597;SDS011;52267;51.984;20.956;2023-07-13T12:23:24;9.00;;;5.30;;
65597;SDS011;52267;51.984;20.956;2023-07-13T12:25:58;7.70;;;5.60;;
65597;SDS011;52267;51.984;20.956;2023-07-13T12:28:45;10.20;;;6.50;;
65597;SDS011;52267;51.984;20.956;2023-07-13T12:31:34;8.40;;;5.80;;
65597;SDS011;52267;51.984;20.956;2023-07-13T12:34:16;10.40;;;5.90;;
65597;SDS011;52267;51.984;20.956;2023-07-13T12:36:51;9.00;;;6.00;;
65597;SDS011;52267;51.984;20.956;2023-07-13T12:39:36;9.10;;;6.60;;
65597;SDS011;52267;51.984;20.956;2023-07-13T12:42:24;10.70;;;7.10;;
65597;SDS011;52267;51.984;20.956;2023-07-13T12:45:05;14.40;;;7.30;;
65597;SDS011;52267;51.984;20.956;2023-07-13T12:51:10;12.20;;;7.30;;
65597;SDS011;52267;51.984;20.956;2023-07-13T12:53:47;8.50;;;6.80;;
65597;SDS011;52267;51.984;20.956;2023-07-13T12:56:24;9.90;;;7.10;;
65597;SDS011;52267;51.984;20.956;2023-07-13T12:58:58;9.80;;;6.40;;
65597;SDS011;52267;51.984;20.956;2023-07-13T13:01:33;7.70;;;6.40;;
65597;SDS011;52267;51.984;20.956;2023-07-13T13:04:04;10.40;;;6.70;;
65597;SDS011;52267;51.984;20.956;2023-07-13T13:06:37;9.60;;;6.60;;
65597;SDS011;52267;51.984;20.956;2023-07-13T13:09:11;8.40;;;6.00;;
65597;SDS011;52267;51.984;20.956;2023-07-13T13:11:40;8.90;;;6.20;;
65597;SDS011;52267;51.984;20.956;2023-07-13T13:14:08;11.30;;;7.40;;
65597;SDS011;52267;51.984;20.956;2023-07-13T13:16:47;7.70;;;6.40;;
65597;SDS011;52267;51.984;20.956;2023-07-13T13:19:21;9.10;;;6.70;;
65597;SDS011;52267;51.984;20.956;2023-07-13T13:21:54;10.80;;;6.30;;
65597;SDS011;52267;51.984;20.956;2023-07-13T13:24:26;8.60;;;6.90;;
65597;SDS011;52267;51.984;20.956;2023-07-13T13:26:54;8.50;;;7.00;;
65597;SDS011;52267;51.984;20.956;2023-07-13T13:29:24;10.40;;;7.10;;
65597;SDS011;52267;51.984;20.956;2023-07-13T13:31:53;9.30;;;6.90;;
65597;SDS011;52267;51.984;20.956;2023-07-13T13:34:22;9.80;;;7.50;;
65597;SDS011;52267;51.984;20.956;2023-07-13T13:36:54;8.90;;;7.10;;
65597;SDS011;52267;51.984;20.956;2023-07-13T13:39:33;11.00;;;7.00;;
65597;SDS011;52267;51.984;20.956;2023-07-13T13:42:05;10.30;;;6.80;;
65597;SDS011;52267;51.984;20.956;2023-07-13T13:44:32;9.50;;;8.00;;
65597;SDS011;52267;51.984;20.956;2023-07-13T13:46:59;11.50;;;7.60;;
65597;SDS011;52267;51.984;20.956;2023-07-13T13:49:27;10.40;;;8.00;;
65597;SDS011;52267;51.984;20.956;2023-07-13T13:51:55;9.30;;;7.60;;
65597;SDS011;52267;51.984;20.956;2023-07-13T13:54:23;10.00;;;8.40;;
65597;SDS011;52267;51.984;20.956;2023-07-13T13:56:52;11.20;;;7.60;;
65597;SDS011;52267;51.984;20.956;2023-07-13T13:59:19;10.50;;;7.70;;
65597;SDS011;52267;51.984;20.956;2023-07-13T14:01:48;9.10;;;7.90;;
65597;SDS011;52267;51.984;20.956;2023-07-13T14:04:19;9.00;;;7.70;;
65597;SDS011;52267;51.984;20.956;2023-07-13T14:06:47;8.40;;;7.00;;
65597;SDS011;52267;51.984;20.956;2023-07-13T14:09:17;8.20;;;6.90;;
65597;SDS011;52267;51.984;20.956;2023-07-13T14:11:46;9.70;;;7.20;;
65597;SDS011;52267;51.984;20.956;2023-07-13T14:14:20;11.50;;;8.10;;
65597;SDS011;52267;51.984;20.956;2023-07-13T14:16:51;9.20;;;7.00;;
65597;SDS011;52267;51.984;20.956;2023-07-13T14:19:20;9.70;;;7.30;;
65597;SDS011;52267;51.984;20.956;2023-07-13T14:21:47;9.30;;;7.10;;
65597;SDS011;52267;51.984;20.956;2023-07-13T14:24:16;10.50;;;7.00;;
65597;SDS011;52267;51.984;20.956;2023-07-13T14:26:43;9.20;;;6.90;;
65597;SDS011;52267;51.984;20.956;2023-07-13T14:29:16;9.50;;;7.10;;
65597;SDS011;52267;51.984;20.956;2023-07-13T14:31:45;10.80;;;7.40;;
65597;SDS011;52267;51.984;20.956;2023-07-13T14:34:13;9.40;;;7.00;;
65597;SDS011;52267;51.984;20.956;2023-07-13T14:36:43;8.00;;;6.60;;
65597;SDS011;52267;51.984;20.956;2023-07-13T14:39:17;9.50;;;7.20;;
65597;SDS011;52267;51.984;20.956;2023-07-13T14:41:50;7.40;;;6.40;;
65597;SDS011;52267;51.984;20.956;2023-07-13T14:44:23;10.10;;;7.10;;
65597;SDS011;52267;51.984;20.956;2023-07-13T14:46:52;8.40;;;6.70;;
65597;SDS011;52267;51.984;20.956;2023-07-13T14:49:32;7.50;;;5.90;;
65597;SDS011;52267;51.984;20.956;2023-07-13T14:52:05;7.50;;;6.00;;
65597;SDS011;52267;51.984;20.956;2023-07-13T14:54:41;8.70;;;6.70;;
65597;SDS011;52267;51.984;20.956;2023-07-13T14:57:15;10.10;;;7.10;;
65597;SDS011;52267;51.984;20.956;2023-07-13T14:59:46;10.80;;;6.90;;
65597;SDS011;52267;51.984;20.956;2023-07-13T15:02:22;8.40;;;6.80;;
65597;SDS011;52267;51.984;20.956;2023-07-13T15:04:53;9.70;;;6.60;;
65597;SDS011;52267;51.984;20.956;2023-07-13T15:07:21;9.30;;;7.10;;
65597;SDS011;52267;51.984;20.956;2023-07-13T15:09:50;8.50;;;6.70;;
65597;SDS011;52267;51.984;20.956;2023-07-13T15:12:18;8.20;;;6.00;;
65597;SDS011;52267;51.984;20.956;2023-07-13T15:14:46;10.20;;;6.70;;
65597;SDS011;52267;51.984;20.956;2023-07-13T15:17:37;8.10;;;6.60;;
65597;SDS011;52267;51.984;20.956;2023-07-13T15:20:19;9.60;;;6.60;;
65597;SDS011;52267;51.984;20.956;2023-07-13T15:22:51;9.10;;;6.50;;